sensor_id;sensor_type;location;lat;lon;timestamp;P1;durP1;ratioP1;P2;durP2;ratioP2
69185;SDS011;56298;49.246;9.410;2023-05-02T00:02:07;12.60;;;7.30;;
69185;SDS011;56298;49.246;9.410;2023-05-02T00:04:32;11.77;;;7.33;;
69185;SDS011;56298;49.246;9.410;2023-05-02T00:06:57;12.35;;;7.13;;
69185;SDS011;56298;49.246;9.410;2023-05-02T00:09:23;11.40;;;7.30;;
69185;SDS011;56298;49.246;9.410;2023-05-02T00:11:48;11.30;;;7.10;;
69185;SDS011;56298;49.246;9.410;2023-05-02T00:14:13;11.30;;;7.10;;
69185;SDS011;56298;49.246;9.410;2023-05-02T00:16:38;11.73;;;7.10;;
69185;SDS011;56298;49.246;9.410;2023-05-02T00:19:04;11.53;;;7.10;;
69185;SDS011;56298;49.246;9.410;2023-05-02T00:21:29;10.60;;;7.17;;
69185;SDS011;56298;49.246;9.410;2023-05-02T00:23:55;10.88;;;6.93;;
69185;SDS011;56298;49.246;9.410;2023-05-02T00:26:24;10.75;;;7.28;;
69185;SDS011;56298;49.246;9.410;2023-05-02T00:28:49;10.53;;;7.00;;
69185;SDS011;56298;49.246;9.410;2023-05-02T00:31:14;11.23;;;6.93;;
69185;SDS011;56298;49.246;9.410;2023-05-02T00:33:40;11.00;;;7.00;;
69185;SDS011;56298;49.246;9.410;2023-05-02T00:36:16;10.63;;;6.88;;
69185;SDS011;56298;49.246;9.410;2023-05-02T00:38:42;11.10;;;7.07;;
69185;SDS011;56298;49.246;9.410;2023-05-02T00:41:07;11.97;;;7.10;;
69185;SDS011;56298;49.246;9.410;2023-05-02T00:43:32;11.83;;;6.90;;
69185;SDS011;56298;49.246;9.410;2023-05-02T00:45:58;11.47;;;6.70;;
69185;SDS011;56298;49.246;9.410;2023-05-02T00:48:23;10.97;;;6.97;;
69185;SDS011;56298;49.246;9.410;2023-05-02T00:50:49;11.13;;;6.87;;
69185;SDS011;56298;49.246;9.410;2023-05-02T00:53:15;11.70;;;7.47;;
69185;SDS011;56298;49.246;9.410;2023-05-02T00:55:40;11.07;;;7.70;;
69185;SDS011;56298;49.246;9.410;2023-05-02T00:58:09;11.77;;;7.25;;
69185;SDS011;56298;49.246;9.410;2023-05-02T01:08:49;11.40;;;7.43;;
69185;SDS011;56298;49.246;9.410;2023-05-02T01:14:22;11.13;;;7.10;;
69185;SDS011;56298;49.246;9.410;2023-05-02T01:16:51;10.75;;;7.18;;
69185;SDS011;56298;49.246;9.410;2023-05-02T01:22:15;11.55;;;7.38;;
69185;SDS011;56298;49.246;9.410;2023-05-02T01:24:52;11.45;;;7.65;;
69185;SDS011;56298;49.246;9.410;2023-05-02T01:30:15;12.10;;;7.43;;
69185;SDS011;56298;49.246;9.410;2023-05-02T01:32:42;10.30;;;6.70;;
69185;SDS011;56298;49.246;9.410;2023-05-02T01:35:10;12.10;;;7.05;;
69185;SDS011;56298;49.246;9.410;2023-05-02T01:37:39;12.90;;;7.20;;
69185;SDS011;56298;49.246;9.410;2023-05-02T01:40:07;12.02;;;7.57;;
69185;SDS011;56298;49.246;9.410;2023-05-02T01:42:33;12.35;;;7.55;;
69185;SDS011;56298;49.246;9.410;2023-05-02T01:45:01;13.05;;;7.75;;
69185;SDS011;56298;49.246;9.410;2023-05-02T01:47:28;12.38;;;7.45;;
69185;SDS011;56298;49.246;9.410;2023-05-02T01:49:57;12.73;;;7.67;;
69185;SDS011;56298;49.246;9.410;2023-05-02T01:52:23;11.52;;;7.80;;
69185;SDS011;56298;49.246;9.410;2023-05-02T01:54:51;10.80;;;7.10;;
69185;SDS011;56298;49.246;9.410;2023-05-02T01:57:19;13.27;;;7.60;;
69185;SDS011;56298;49.246;9.410;2023-05-02T01:59:44;10.63;;;7.23;;
69185;SDS011;56298;49.246;9.410;2023-05-02T02:02:11;11.77;;;7.23;;
69185;SDS011;56298;49.246;9.410;2023-05-02T02:04:38;13.82;;;7.40;;
69185;SDS011;56298;49.246;9.410;2023-05-02T02:07:07;11.77;;;7.05;;
69185;SDS011;56298;49.246;9.410;2023-05-02T02:09:34;11.33;;;7.27;;
69185;SDS011;56298;49.246;9.410;2023-05-02T02:12:10;11.20;;;7.10;;
69185;SDS011;56298;49.246;9.410;2023-05-02T02:14:37;10.80;;;7.10;;
69185;SDS011;56298;49.246;9.410;2023-05-02T02:17:20;12.18;;;7.80;;
69185;SDS011;56298;49.246;9.410;2023-05-02T02:19:49;12.40;;;7.75;;
69185;SDS011;56298;49.246;9.410;2023-05-02T02:22:18;12.87;;;7.60;;
69185;SDS011;56298;49.246;9.410;2023-05-02T02:24:45;11.15;;;7.13;;
69185;SDS011;56298;49.246;9.410;2023-05-02T02:27:12;12.25;;;7.30;;
69185;SDS011;56298;49.246;9.410;2023-05-02T02:29:38;11.35;;;7.35;;
69185;SDS011;56298;49.246;9.410;2023-05-02T02:32:03;10.87;;;7.23;;
69185;SDS011;56298;49.246;9.410;2023-05-02T02:34:28;11.17;;;7.37;;
69185;SDS011;56298;49.246;9.410;2023-05-02T02:36:56;12.98;;;7.20;;
69185;SDS011;56298;49.246;9.410;2023-05-02T02:42:14;14.65;;;7.57;;
69185;SDS011;56298;49.246;9.410;2023-05-02T02:47:27;12.30;;;7.47;;
69185;SDS011;56298;49.246;9.410;2023-05-02T02:50:14;11.40;;;7.18;;
69185;SDS011;56298;49.246;9.410;2023-05-02T02:52:49;12.68;;;7.25;;
69185;SDS011;56298;49.246;9.410;2023-05-02T02:55:28;12.53;;;7.60;;
69185;SDS011;56298;49.246;9.410;2023-05-02T02:58:03;12.73;;;7.57;;
69185;SDS011;56298;49.246;9.410;2023-05-02T03:00:37;10.80;;;7.23;;
69185;SDS011;56298;49.246;9.410;2023-05-02T03:03:03;13.45;;;8.15;;
69185;SDS011;56298;49.246;9.410;2023-05-02T03:05:31;11.73;;;7.38;;
69185;SDS011;56298;49.246;9.410;2023-05-02T03:07:57;12.25;;;7.82;;
69185;SDS011;56298;49.246;9.410;2023-05-02T03:10:24;10.60;;;7.45;;
69185;SDS011;56298;49.246;9.410;2023-05-02T03:12:49;13.02;;;7.40;;
69185;SDS011;56298;49.246;9.410;2023-05-02T03:18:14;12.70;;;7.82;;
69185;SDS011;56298;49.246;9.410;2023-05-02T03:20:39;11.27;;;7.73;;
69185;SDS011;56298;49.246;9.410;2023-05-02T03:23:04;12.57;;;8.07;;
69185;SDS011;56298;49.246;9.410;2023-05-02T03:25:29;12.87;;;8.10;;
69185;SDS011;56298;49.246;9.410;2023-05-02T03:27:56;11.93;;;7.73;;
69185;SDS011;56298;49.246;9.410;2023-05-02T03:30:21;13.73;;;7.68;;
69185;SDS011;56298;49.246;9.410;2023-05-02T03:32:47;14.13;;;7.47;;
69185;SDS011;56298;49.246;9.410;2023-05-02T03:35:12;12.07;;;7.60;;
69185;SDS011;56298;49.246;9.410;2023-05-02T03:37:37;12.60;;;7.80;;
69185;SDS011;56298;49.246;9.410;2023-05-02T03:40:02;13.03;;;7.70;;
69185;SDS011;56298;49.246;9.410;2023-05-02T03:42:28;12.18;;;7.60;;
69185;SDS011;56298;49.246;9.410;2023-05-02T03:44:54;12.57;;;7.65;;
69185;SDS011;56298;49.246;9.410;2023-05-02T03:47:19;10.35;;;7.55;;
69185;SDS011;56298;49.246;9.410;2023-05-02T03:49:44;11.97;;;7.50;;
69185;SDS011;56298;49.246;9.410;2023-05-02T03:52:10;13.13;;;7.50;;
69185;SDS011;56298;49.246;9.410;2023-05-02T03:54:36;12.77;;;7.90;;
69185;SDS011;56298;49.246;9.410;2023-05-02T03:57:01;11.90;;;7.53;;
69185;SDS011;56298;49.246;9.410;2023-05-02T03:59:31;12.85;;;7.95;;
69185;SDS011;56298;49.246;9.410;2023-05-02T04:01:56;12.33;;;7.73;;
69185;SDS011;56298;49.246;9.410;2023-05-02T04:04:22;12.90;;;8.20;;
69185;SDS011;56298;49.246;9.410;2023-05-02T04:06:47;12.77;;;8.30;;
69185;SDS011;56298;49.246;9.410;2023-05-02T04:09:12;10.83;;;7.70;;
69185;SDS011;56298;49.246;9.410;2023-05-02T04:11:37;11.97;;;7.87;;
69185;SDS011;56298;49.246;9.410;2023-05-02T04:14:03;12.50;;;7.90;;
69185;SDS011;56298;49.246;9.410;2023-05-02T04:16:28;12.30;;;7.80;;
69185;SDS011;56298;49.246;9.410;2023-05-02T04:18:53;11.40;;;8.00;;
69185;SDS011;56298;49.246;9.410;2023-05-02T04:21:18;12.87;;;8.30;;
69185;SDS011;56298;49.246;9.410;2023-05-02T04:23:44;11.50;;;7.83;;
69185;SDS011;56298;49.246;9.410;2023-05-02T04:26:09;11.80;;;7.83;;
69185;SDS011;56298;49.246;9.410;2023-05-02T04:28:34;10.97;;;7.30;;
69185;SDS011;56298;49.246;9.410;2023-05-02T04:31:00;12.00;;;7.10;;
69185;SDS011;56298;49.246;9.410;2023-05-02T04:33:27;14.30;;;7.80;;
69185;SDS011;56298;49.246;9.410;2023-05-02T04:35:52;12.60;;;7.97;;
69185;SDS011;56298;49.246;9.410;2023-05-02T04:38:18;13.20;;;7.77;;
69185;SDS011;56298;49.246;9.410;2023-05-02T04:40:43;13.63;;;8.10;;
69185;SDS011;56298;49.246;9.410;2023-05-02T04:43:08;11.87;;;7.90;;
69185;SDS011;56298;49.246;9.410;2023-05-02T04:45:34;11.30;;;8.10;;
69185;SDS011;56298;49.246;9.410;2023-05-02T04:48:00;10.60;;;7.85;;
69185;SDS011;56298;49.246;9.410;2023-05-02T04:50:25;11.43;;;7.43;;
69185;SDS011;56298;49.246;9.410;2023-05-02T04:52:52;11.50;;;7.50;;
69185;SDS011;56298;49.246;9.410;2023-05-02T04:55:17;10.80;;;7.57;;
69185;SDS011;56298;49.246;9.410;2023-05-02T04:57:42;12.20;;;7.70;;
69185;SDS011;56298;49.246;9.410;2023-05-02T05:00:08;11.27;;;7.47;;
69185;SDS011;56298;49.246;9.410;2023-05-02T05:02:33;11.65;;;7.22;;
69185;SDS011;56298;49.246;9.410;2023-05-02T05:04:59;11.20;;;7.27;;
69185;SDS011;56298;49.246;9.410;2023-05-02T05:07:25;10.68;;;7.07;;
69185;SDS011;56298;49.246;9.410;2023-05-02T05:09:51;11.87;;;7.40;;
69185;SDS011;56298;49.246;9.410;2023-05-02T05:12:16;11.23;;;7.23;;
69185;SDS011;56298;49.246;9.410;2023-05-02T05:14:41;11.23;;;7.50;;
69185;SDS011;56298;49.246;9.410;2023-05-02T05:17:06;11.33;;;7.60;;
69185;SDS011;56298;49.246;9.410;2023-05-02T05:19:31;11.67;;;8.00;;
69185;SDS011;56298;49.246;9.410;2023-05-02T05:21:57;11.67;;;7.90;;
69185;SDS011;56298;49.246;9.410;2023-05-02T05:24:22;10.53;;;7.67;;
69185;SDS011;56298;49.246;9.410;2023-05-02T05:26:47;12.40;;;7.87;;
69185;SDS011;56298;49.246;9.410;2023-05-02T05:29:12;11.48;;;7.68;;
69185;SDS011;56298;49.246;9.410;2023-05-02T05:31:38;11.47;;;7.83;;
69185;SDS011;56298;49.246;9.410;2023-05-02T05:34:03;11.15;;;7.07;;
69185;SDS011;56298;49.246;9.410;2023-05-02T05:36:28;11.03;;;7.57;;
69185;SDS011;56298;49.246;9.410;2023-05-02T05:38:55;12.53;;;7.83;;
69185;SDS011;56298;49.246;9.410;2023-05-02T05:41:21;11.40;;;7.70;;
69185;SDS011;56298;49.246;9.410;2023-05-02T05:43:46;12.30;;;7.35;;
69185;SDS011;56298;49.246;9.410;2023-05-02T05:46:12;11.07;;;7.23;;
69185;SDS011;56298;49.246;9.410;2023-05-02T05:48:37;10.97;;;7.47;;
69185;SDS011;56298;49.246;9.410;2023-05-02T05:51:03;12.53;;;7.90;;
69185;SDS011;56298;49.246;9.410;2023-05-02T05:53:29;10.77;;;7.93;;
69185;SDS011;56298;49.246;9.410;2023-05-02T05:55:54;13.17;;;8.10;;
69185;SDS011;56298;49.246;9.410;2023-05-02T05:58:19;10.73;;;7.60;;
69185;SDS011;56298;49.246;9.410;2023-05-02T06:00:45;11.10;;;7.93;;
69185;SDS011;56298;49.246;9.410;2023-05-02T06:03:10;11.63;;;8.03;;
69185;SDS011;56298;49.246;9.410;2023-05-02T06:05:36;13.02;;;8.30;;
69185;SDS011;56298;49.246;9.410;2023-05-02T06:08:01;12.70;;;8.00;;
69185;SDS011;56298;49.246;9.410;2023-05-02T06:10:26;11.40;;;8.30;;
69185;SDS011;56298;49.246;9.410;2023-05-02T06:12:52;12.90;;;8.37;;
69185;SDS011;56298;49.246;9.410;2023-05-02T06:15:17;10.90;;;7.60;;
69185;SDS011;56298;49.246;9.410;2023-05-02T06:17:43;11.03;;;8.13;;
69185;SDS011;56298;49.246;9.410;2023-05-02T06:20:08;11.77;;;8.23;;
69185;SDS011;56298;49.246;9.410;2023-05-02T06:22:34;11.13;;;8.00;;
69185;SDS011;56298;49.246;9.410;2023-05-02T06:25:00;11.43;;;8.10;;
69185;SDS011;56298;49.246;9.410;2023-05-02T06:27:25;11.63;;;7.90;;
69185;SDS011;56298;49.246;9.410;2023-05-02T06:29:51;11.27;;;8.23;;
69185;SDS011;56298;49.246;9.410;2023-05-02T06:32:17;13.32;;;8.63;;
69185;SDS011;56298;49.246;9.410;2023-05-02T06:34:42;12.97;;;8.97;;
69185;SDS011;56298;49.246;9.410;2023-05-02T06:37:08;12.73;;;8.67;;
69185;SDS011;56298;49.246;9.410;2023-05-02T06:39:33;13.67;;;8.90;;
69185;SDS011;56298;49.246;9.410;2023-05-02T06:41:58;12.23;;;9.00;;
69185;SDS011;56298;49.246;9.410;2023-05-02T06:44:24;13.40;;;8.47;;
69185;SDS011;56298;49.246;9.410;2023-05-02T06:46:49;12.97;;;9.20;;
69185;SDS011;56298;49.246;9.410;2023-05-02T06:49:15;12.97;;;9.30;;
69185;SDS011;56298;49.246;9.410;2023-05-02T06:51:40;13.02;;;9.10;;
69185;SDS011;56298;49.246;9.410;2023-05-02T06:54:06;13.32;;;9.32;;
69185;SDS011;56298;49.246;9.410;2023-05-02T06:56:32;13.85;;;10.57;;
69185;SDS011;56298;49.246;9.410;2023-05-02T06:58:57;14.30;;;10.00;;
69185;SDS011;56298;49.246;9.410;2023-05-02T07:04:00;15.70;;;9.85;;
69185;SDS011;56298;49.246;9.410;2023-05-02T07:06:29;14.25;;;10.65;;
69185;SDS011;56298;49.246;9.410;2023-05-02T07:08:55;16.02;;;10.95;;
69185;SDS011;56298;49.246;9.410;2023-05-02T07:11:20;15.73;;;10.90;;
69185;SDS011;56298;49.246;9.410;2023-05-02T07:13:47;14.48;;;10.60;;
69185;SDS011;56298;49.246;9.410;2023-05-02T07:16:12;13.70;;;10.53;;
69185;SDS011;56298;49.246;9.410;2023-05-02T07:18:38;14.67;;;10.50;;
69185;SDS011;56298;49.246;9.410;2023-05-02T07:21:03;14.63;;;10.40;;
69185;SDS011;56298;49.246;9.410;2023-05-02T07:23:28;13.93;;;9.80;;
69185;SDS011;56298;49.246;9.410;2023-05-02T07:25:54;13.70;;;9.90;;
69185;SDS011;56298;49.246;9.410;2023-05-02T07:28:19;13.57;;;10.07;;
69185;SDS011;56298;49.246;9.410;2023-05-02T07:30:45;13.17;;;10.17;;
69185;SDS011;56298;49.246;9.410;2023-05-02T07:33:10;14.03;;;10.20;;
69185;SDS011;56298;49.246;9.410;2023-05-02T07:35:35;12.73;;;9.77;;
69185;SDS011;56298;49.246;9.410;2023-05-02T07:38:00;15.17;;;9.57;;
69185;SDS011;56298;49.246;9.410;2023-05-02T07:40:26;12.87;;;9.50;;
69185;SDS011;56298;49.246;9.410;2023-05-02T07:42:52;13.15;;;9.90;;
69185;SDS011;56298;49.246;9.410;2023-05-02T07:45:17;14.17;;;9.90;;
69185;SDS011;56298;49.246;9.410;2023-05-02T07:47:43;14.20;;;10.03;;
69185;SDS011;56298;49.246;9.410;2023-05-02T07:50:09;13.25;;;10.05;;
69185;SDS011;56298;49.246;9.410;2023-05-02T07:52:34;14.53;;;10.20;;
69185;SDS011;56298;49.246;9.410;2023-05-02T07:55:00;13.87;;;10.50;;
69185;SDS011;56298;49.246;9.410;2023-05-02T07:57:26;14.43;;;10.52;;
69185;SDS011;56298;49.246;9.410;2023-05-02T07:59:51;14.13;;;10.57;;
69185;SDS011;56298;49.246;9.410;2023-05-02T08:02:16;13.77;;;9.82;;
69185;SDS011;56298;49.246;9.410;2023-05-02T08:04:44;14.23;;;9.80;;
69185;SDS011;56298;49.246;9.410;2023-05-02T08:07:09;14.57;;;10.23;;
69185;SDS011;56298;49.246;9.410;2023-05-02T08:09:34;12.47;;;9.70;;
69185;SDS011;56298;49.246;9.410;2023-05-02T08:12:00;13.60;;;9.47;;
69185;SDS011;56298;49.246;9.410;2023-05-02T08:14:27;14.38;;;9.73;;
69185;SDS011;56298;49.246;9.410;2023-05-02T08:16:52;13.30;;;9.93;;
69185;SDS011;56298;49.246;9.410;2023-05-02T08:19:18;13.50;;;9.53;;
69185;SDS011;56298;49.246;9.410;2023-05-02T08:21:43;12.37;;;9.30;;
69185;SDS011;56298;49.246;9.410;2023-05-02T08:24:08;13.07;;;9.63;;
69185;SDS011;56298;49.246;9.410;2023-05-02T08:26:33;12.10;;;9.17;;
69185;SDS011;56298;49.246;9.410;2023-05-02T08:28:59;11.93;;;8.77;;
69185;SDS011;56298;49.246;9.410;2023-05-02T08:31:25;12.82;;;10.35;;
69185;SDS011;56298;49.246;9.410;2023-05-02T08:33:50;13.83;;;9.63;;
69185;SDS011;56298;49.246;9.410;2023-05-02T08:36:16;13.50;;;9.93;;
69185;SDS011;56298;49.246;9.410;2023-05-02T08:38:43;13.07;;;9.85;;
69185;SDS011;56298;49.246;9.410;2023-05-02T08:41:10;13.43;;;9.20;;
69185;SDS011;56298;49.246;9.410;2023-05-02T08:43:39;15.37;;;9.40;;
69185;SDS011;56298;49.246;9.410;2023-05-02T08:46:05;13.55;;;9.85;;
69185;SDS011;56298;49.246;9.410;2023-05-02T08:48:34;13.23;;;9.15;;
69185;SDS011;56298;49.246;9.410;2023-05-02T08:51:01;13.27;;;9.90;;
69185;SDS011;56298;49.246;9.410;2023-05-02T08:53:28;14.07;;;10.02;;
69185;SDS011;56298;49.246;9.410;2023-05-02T08:55:56;12.30;;;9.23;;
69185;SDS011;56298;49.246;9.410;2023-05-02T08:58:21;14.87;;;9.70;;
69185;SDS011;56298;49.246;9.410;2023-05-02T09:00:46;13.60;;;10.03;;
69185;SDS011;56298;49.246;9.410;2023-05-02T09:03:21;14.18;;;10.35;;
69185;SDS011;56298;49.246;9.410;2023-05-02T09:05:51;14.13;;;10.10;;
69185;SDS011;56298;49.246;9.410;2023-05-02T09:08:21;15.30;;;10.10;;
69185;SDS011;56298;49.246;9.410;2023-05-02T09:10:48;13.65;;;9.98;;
69185;SDS011;56298;49.246;9.410;2023-05-02T09:13:35;16.17;;;10.33;;
69185;SDS011;56298;49.246;9.410;2023-05-02T09:16:10;15.68;;;10.73;;
69185;SDS011;56298;49.246;9.410;2023-05-02T09:18:40;15.27;;;10.45;;
69185;SDS011;56298;49.246;9.410;2023-05-02T09:21:10;13.95;;;10.18;;
69185;SDS011;56298;49.246;9.410;2023-05-02T09:23:44;14.43;;;10.60;;
69185;SDS011;56298;49.246;9.410;2023-05-02T09:28:53;16.10;;;11.00;;
69185;SDS011;56298;49.246;9.410;2023-05-02T09:31:20;15.80;;;11.50;;
69185;SDS011;56298;49.246;9.410;2023-05-02T09:33:50;16.25;;;11.95;;
69185;SDS011;56298;49.246;9.410;2023-05-02T09:36:16;16.70;;;11.93;;
69185;SDS011;56298;49.246;9.410;2023-05-02T09:38:45;15.67;;;11.77;;
69185;SDS011;56298;49.246;9.410;2023-05-02T09:41:13;15.47;;;11.23;;
69185;SDS011;56298;49.246;9.410;2023-05-02T09:43:39;15.55;;;10.55;;
69185;SDS011;56298;49.246;9.410;2023-05-02T09:46:06;15.13;;;11.05;;
69185;SDS011;56298;49.246;9.410;2023-05-02T09:48:35;16.65;;;10.65;;
69185;SDS011;56298;49.246;9.410;2023-05-02T09:51:16;14.32;;;10.55;;
69185;SDS011;56298;49.246;9.410;2023-05-02T09:53:43;15.85;;;11.35;;
69185;SDS011;56298;49.246;9.410;2023-05-02T09:56:09;15.35;;;11.00;;
69185;SDS011;56298;49.246;9.410;2023-05-02T09:58:34;16.57;;;10.57;;
69185;SDS011;56298;49.246;9.410;2023-05-02T10:01:00;12.87;;;10.10;;
69185;SDS011;56298;49.246;9.410;2023-05-02T10:03:25;13.00;;;9.80;;
69185;SDS011;56298;49.246;9.410;2023-05-02T10:05:52;16.23;;;11.13;;
69185;SDS011;56298;49.246;9.410;2023-05-02T10:08:18;13.60;;;10.30;;
69185;SDS011;56298;49.246;9.410;2023-05-02T10:10:54;12.57;;;9.80;;
69185;SDS011;56298;49.246;9.410;2023-05-02T10:13:21;15.30;;;11.00;;
69185;SDS011;56298;49.246;9.410;2023-05-02T10:15:49;16.33;;;11.52;;
69185;SDS011;56298;49.246;9.410;2023-05-02T10:18:20;15.15;;;10.43;;
69185;SDS011;56298;49.246;9.410;2023-05-02T10:20:58;15.18;;;11.50;;
69185;SDS011;56298;49.246;9.410;2023-05-02T10:23:26;16.15;;;11.43;;
69185;SDS011;56298;49.246;9.410;2023-05-02T10:25:52;13.88;;;10.30;;
69185;SDS011;56298;49.246;9.410;2023-05-02T10:28:18;14.40;;;10.10;;
69185;SDS011;56298;49.246;9.410;2023-05-02T10:30:44;14.55;;;10.43;;
69185;SDS011;56298;49.246;9.410;2023-05-02T10:33:12;13.98;;;9.73;;
69185;SDS011;56298;49.246;9.410;2023-05-02T10:35:38;14.97;;;10.27;;
69185;SDS011;56298;49.246;9.410;2023-05-02T10:38:08;14.40;;;10.50;;
69185;SDS011;56298;49.246;9.410;2023-05-02T10:40:34;15.45;;;10.57;;
69185;SDS011;56298;49.246;9.410;2023-05-02T10:43:00;15.90;;;11.43;;
69185;SDS011;56298;49.246;9.410;2023-05-02T10:45:35;17.63;;;11.27;;
69185;SDS011;56298;49.246;9.410;2023-05-02T10:53:25;15.10;;;10.87;;
69185;SDS011;56298;49.246;9.410;2023-05-02T10:56:06;14.17;;;10.63;;
69185;SDS011;56298;49.246;9.410;2023-05-02T10:58:33;13.95;;;10.45;;
69185;SDS011;56298;49.246;9.410;2023-05-02T11:06:26;14.10;;;9.88;;
69185;SDS011;56298;49.246;9.410;2023-05-02T11:08:52;14.13;;;10.60;;
69185;SDS011;56298;49.246;9.410;2023-05-02T11:11:42;12.95;;;10.00;;
69185;SDS011;56298;49.246;9.410;2023-05-02T11:14:11;13.18;;;9.45;;
69185;SDS011;56298;49.246;9.410;2023-05-02T11:19:29;12.95;;;7.97;;
69185;SDS011;56298;49.246;9.410;2023-05-02T11:24:45;15.02;;;9.45;;
69185;SDS011;56298;49.246;9.410;2023-05-02T11:30:01;21.88;;;11.07;;
69185;SDS011;56298;49.246;9.410;2023-05-02T11:35:19;21.05;;;12.00;;
69185;SDS011;56298;49.246;9.410;2023-05-02T11:37:57;19.23;;;10.80;;
69185;SDS011;56298;49.246;9.410;2023-05-02T11:40:24;20.40;;;11.07;;
69185;SDS011;56298;49.246;9.410;2023-05-02T11:42:51;18.52;;;11.65;;
69185;SDS011;56298;49.246;9.410;2023-05-02T11:45:16;18.97;;;11.53;;
69185;SDS011;56298;49.246;9.410;2023-05-02T11:47:42;17.67;;;9.90;;
69185;SDS011;56298;49.246;9.410;2023-05-02T11:50:10;17.40;;;10.20;;
69185;SDS011;56298;49.246;9.410;2023-05-02T11:52:37;17.80;;;11.13;;
69185;SDS011;56298;49.246;9.410;2023-05-02T11:55:06;17.77;;;10.30;;
69185;SDS011;56298;49.246;9.410;2023-05-02T11:57:34;16.73;;;9.90;;
69185;SDS011;56298;49.246;9.410;2023-05-02T12:00:00;17.02;;;9.77;;
69185;SDS011;56298;49.246;9.410;2023-05-02T12:02:38;15.33;;;9.10;;
69185;SDS011;56298;49.246;9.410;2023-05-02T12:05:06;13.45;;;8.82;;
69185;SDS011;56298;49.246;9.410;2023-05-02T12:07:40;13.25;;;8.20;;
69185;SDS011;56298;49.246;9.410;2023-05-02T12:10:07;12.13;;;7.90;;
69185;SDS011;56298;49.246;9.410;2023-05-02T12:12:33;10.98;;;7.38;;
69185;SDS011;56298;49.246;9.410;2023-05-02T12:15:08;10.70;;;7.00;;
69185;SDS011;56298;49.246;9.410;2023-05-02T12:17:40;10.10;;;7.00;;
69185;SDS011;56298;49.246;9.410;2023-05-02T12:20:07;10.70;;;7.22;;
69185;SDS011;56298;49.246;9.410;2023-05-02T12:22:34;10.83;;;6.80;;
69185;SDS011;56298;49.246;9.410;2023-05-02T12:24:59;11.07;;;6.90;;
69185;SDS011;56298;49.246;9.410;2023-05-02T12:27:27;11.73;;;6.45;;
69185;SDS011;56298;49.246;9.410;2023-05-02T12:29:53;10.87;;;7.07;;
69185;SDS011;56298;49.246;9.410;2023-05-02T12:32:37;11.18;;;7.97;;
69185;SDS011;56298;49.246;9.410;2023-05-02T12:35:19;11.98;;;7.70;;
69185;SDS011;56298;49.246;9.410;2023-05-02T12:37:45;11.68;;;7.22;;
69185;SDS011;56298;49.246;9.410;2023-05-02T12:40:15;10.33;;;6.63;;
69185;SDS011;56298;49.246;9.410;2023-05-02T12:42:41;11.98;;;6.80;;
69185;SDS011;56298;49.246;9.410;2023-05-02T12:45:16;10.87;;;7.10;;
69185;SDS011;56298;49.246;9.410;2023-05-02T12:47:44;11.93;;;7.47;;
69185;SDS011;56298;49.246;9.410;2023-05-02T12:50:10;10.65;;;7.00;;
69185;SDS011;56298;49.246;9.410;2023-05-02T12:52:50;11.40;;;7.50;;
69185;SDS011;56298;49.246;9.410;2023-05-02T12:55:23;10.90;;;7.57;;
69185;SDS011;56298;49.246;9.410;2023-05-02T12:58:12;11.60;;;6.95;;
69185;SDS011;56298;49.246;9.410;2023-05-02T13:00:39;11.50;;;7.00;;
69185;SDS011;56298;49.246;9.410;2023-05-02T13:03:05;11.48;;;6.47;;
69185;SDS011;56298;49.246;9.410;2023-05-02T13:05:32;11.30;;;7.03;;
69185;SDS011;56298;49.246;9.410;2023-05-02T13:07:58;10.73;;;6.97;;
69185;SDS011;56298;49.246;9.410;2023-05-02T13:10:25;11.90;;;7.63;;
69185;SDS011;56298;49.246;9.410;2023-05-02T13:12:51;10.27;;;6.63;;
69185;SDS011;56298;49.246;9.410;2023-05-02T13:15:17;11.23;;;6.80;;
69185;SDS011;56298;49.246;9.410;2023-05-02T13:17:42;10.83;;;6.93;;
69185;SDS011;56298;49.246;9.410;2023-05-02T13:20:08;10.73;;;6.67;;
69185;SDS011;56298;49.246;9.410;2023-05-02T13:22:34;10.33;;;6.53;;
69185;SDS011;56298;49.246;9.410;2023-05-02T13:25:03;9.80;;;6.70;;
69185;SDS011;56298;49.246;9.410;2023-05-02T13:27:29;10.15;;;6.47;;
69185;SDS011;56298;49.246;9.410;2023-05-02T13:29:55;10.60;;;6.87;;
69185;SDS011;56298;49.246;9.410;2023-05-02T13:32:20;11.00;;;6.50;;
69185;SDS011;56298;49.246;9.410;2023-05-02T13:34:46;10.10;;;6.97;;
69185;SDS011;56298;49.246;9.410;2023-05-02T13:37:11;10.52;;;6.90;;
69185;SDS011;56298;49.246;9.410;2023-05-02T13:39:37;10.53;;;6.53;;
69185;SDS011;56298;49.246;9.410;2023-05-02T13:42:02;12.50;;;7.47;;
69185;SDS011;56298;49.246;9.410;2023-05-02T13:44:28;12.43;;;7.20;;
69185;SDS011;56298;49.246;9.410;2023-05-02T13:46:53;12.32;;;6.82;;
69185;SDS011;56298;49.246;9.410;2023-05-02T13:49:19;12.37;;;7.37;;
69185;SDS011;56298;49.246;9.410;2023-05-02T13:51:44;10.55;;;7.07;;
69185;SDS011;56298;49.246;9.410;2023-05-02T13:54:10;10.27;;;7.00;;
69185;SDS011;56298;49.246;9.410;2023-05-02T13:56:35;9.83;;;6.20;;
69185;SDS011;56298;49.246;9.410;2023-05-02T13:59:01;10.93;;;7.17;;
69185;SDS011;56298;49.246;9.410;2023-05-02T14:01:26;10.87;;;6.57;;
69185;SDS011;56298;49.246;9.410;2023-05-02T14:03:53;11.47;;;7.20;;
69185;SDS011;56298;49.246;9.410;2023-05-02T14:06:19;12.50;;;7.97;;
69185;SDS011;56298;49.246;9.410;2023-05-02T14:08:44;13.38;;;8.15;;
69185;SDS011;56298;49.246;9.410;2023-05-02T14:11:09;13.02;;;8.32;;
69185;SDS011;56298;49.246;9.410;2023-05-02T14:13:35;14.35;;;8.65;;
69185;SDS011;56298;49.246;9.410;2023-05-02T14:16:00;13.03;;;8.37;;
69185;SDS011;56298;49.246;9.410;2023-05-02T14:18:26;13.83;;;9.07;;
69185;SDS011;56298;49.246;9.410;2023-05-02T14:20:51;15.30;;;10.13;;
69185;SDS011;56298;49.246;9.410;2023-05-02T14:23:16;14.60;;;9.83;;
69185;SDS011;56298;49.246;9.410;2023-05-02T14:25:41;15.00;;;9.10;;
69185;SDS011;56298;49.246;9.410;2023-05-02T14:28:07;14.80;;;9.00;;
69185;SDS011;56298;49.246;9.410;2023-05-02T14:30:32;15.47;;;9.03;;
69185;SDS011;56298;49.246;9.410;2023-05-02T14:32:57;14.38;;;9.25;;
69185;SDS011;56298;49.246;9.410;2023-05-02T14:35:23;14.97;;;9.53;;
69185;SDS011;56298;49.246;9.410;2023-05-02T14:37:48;13.67;;;9.00;;
69185;SDS011;56298;49.246;9.410;2023-05-02T14:40:14;12.87;;;8.43;;
69185;SDS011;56298;49.246;9.410;2023-05-02T14:42:40;16.13;;;8.27;;
69185;SDS011;56298;49.246;9.410;2023-05-02T14:45:05;13.80;;;8.27;;
69185;SDS011;56298;49.246;9.410;2023-05-02T14:47:32;13.15;;;7.78;;
69185;SDS011;56298;49.246;9.410;2023-05-02T14:49:57;12.33;;;7.33;;
69185;SDS011;56298;49.246;9.410;2023-05-02T14:52:22;11.03;;;7.33;;
69185;SDS011;56298;49.246;9.410;2023-05-02T14:54:48;11.23;;;7.03;;
69185;SDS011;56298;49.246;9.410;2023-05-02T14:57:13;11.37;;;6.70;;
69185;SDS011;56298;49.246;9.410;2023-05-02T14:59:39;11.95;;;6.63;;
69185;SDS011;56298;49.246;9.410;2023-05-02T15:02:05;13.00;;;6.80;;
69185;SDS011;56298;49.246;9.410;2023-05-02T15:04:31;10.73;;;6.53;;
69185;SDS011;56298;49.246;9.410;2023-05-02T15:06:56;10.20;;;6.50;;
69185;SDS011;56298;49.246;9.410;2023-05-02T15:09:22;11.20;;;6.23;;
69185;SDS011;56298;49.246;9.410;2023-05-02T15:11:50;10.57;;;5.90;;
69185;SDS011;56298;49.246;9.410;2023-05-02T15:14:15;10.17;;;6.40;;
69185;SDS011;56298;49.246;9.410;2023-05-02T15:16:41;10.73;;;6.40;;
69185;SDS011;56298;49.246;9.410;2023-05-02T15:19:06;10.03;;;5.77;;
69185;SDS011;56298;49.246;9.410;2023-05-02T15:21:31;11.57;;;6.00;;
69185;SDS011;56298;49.246;9.410;2023-05-02T15:23:56;10.90;;;6.20;;